createdAt,value
2016-12-31T00:00:27.484Z,1030.35
2016-12-31T00:01:36.500Z,1030.33
2016-12-31T00:02:45.485Z,1030.32
2016-12-31T00:03:54.458Z,1030.34
2016-12-31T00:05:03.454Z,1030.3
2016-12-31T00:06:12.437Z,1030.34
2016-12-31T00:07:21.424Z,1030.31
2016-12-31T00:08:30.410Z,1030.32
2016-12-31T00:09:39.387Z,1030.35
2016-12-31T00:10:48.365Z,1030.34
2016-12-31T00:11:57.380Z,1030.34
2016-12-31T00:13:06.351Z,1030.33
2016-12-31T00:14:15.370Z,1030.28
2016-12-31T00:15:24.352Z,1030.28
2016-12-31T00:16:33.337Z,1030.3
2016-12-31T00:17:42.306Z,1030.34
2016-12-31T00:18:51.332Z,1030.37
2016-12-31T00:20:00.299Z,1030.4
2016-12-31T00:21:09.288Z,1030.37
2016-12-31T00:22:18.278Z,1030.4
2016-12-31T00:23:27.246Z,1030.43
2016-12-31T00:24:36.213Z,1030.37
2016-12-31T00:25:45.191Z,1030.41
2016-12-31T00:26:54.176Z,1030.4
2016-12-31T00:28:03.192Z,1030.38
2016-12-31T00:29:12.184Z,1030.42
2016-12-31T00:30:21.163Z,1030.39
2016-12-31T00:31:30.135Z,1030.38
2016-12-31T00:32:39.124Z,1030.36
2016-12-31T00:33:48.104Z,1030.36
2016-12-31T00:34:57.094Z,1030.34
2016-12-31T00:36:06.071Z,1030.34
2016-12-31T00:37:15.046Z,1030.36
2016-12-31T00:38:24.035Z,1030.32
2016-12-31T00:39:33.006Z,1030.28
2016-12-31T00:40:41.983Z,1030.29
2016-12-31T00:41:50.992Z,1030.23
2016-12-31T00:42:59.983Z,1030.23
2016-12-31T00:44:09.416Z,1030.26
2016-12-31T00:45:18.394Z,1030.24
2016-12-31T00:46:27.367Z,1030.16
2016-12-31T00:47:36.333Z,1030.19
2016-12-31T00:48:45.320Z,1030.17
2016-12-31T00:49:54.288Z,1030.16
2016-12-31T00:51:03.265Z,1030.18
2016-12-31T00:52:12.247Z,1030.17
2016-12-31T00:53:21.216Z,1030.15
2016-12-31T00:54:30.205Z,1030.17
2016-12-31T00:55:39.188Z,1030.21
2016-12-31T00:56:48.169Z,1030.24
2016-12-31T00:57:57.170Z,1030.25
2016-12-31T00:59:06.151Z,1030.22
2016-12-31T01:00:15.157Z,1030.21
2016-12-31T01:01:24.131Z,1030.19
2016-12-31T01:02:33.123Z,1030.25
2016-12-31T01:03:42.101Z,1030.24
2016-12-31T01:04:51.075Z,1030.24
2016-12-31T01:06:00.053Z,1030.23
2016-12-31T01:07:09.034Z,1030.18
2016-12-31T01:08:18.026Z,1030.15
2016-12-31T01:09:27.009Z,1030.18
2016-12-31T01:10:36.018Z,1030.19
2016-12-31T01:11:45.001Z,1030.17
2016-12-31T01:12:54.002Z,1030.17
2016-12-31T01:14:02.976Z,1030.19
2016-12-31T01:15:11.955Z,1030.18
2016-12-31T01:16:20.967Z,1030.1
2016-12-31T01:17:29.950Z,1030.06
2016-12-31T01:18:38.926Z,1030.06
2016-12-31T01:19:47.914Z,1030.05
2016-12-31T01:20:56.895Z,1030.06
2016-12-31T01:22:05.890Z,1030.05
2016-12-31T01:23:14.886Z,1030.11
2016-12-31T01:24:23.869Z,1030.1
2016-12-31T01:25:32.843Z,1030.06
2016-12-31T01:26:41.824Z,1030.09
2016-12-31T01:27:50.791Z,1030.07
2016-12-31T01:28:59.776Z,1030.1
2016-12-31T01:30:08.992Z,1030.11
2016-12-31T01:31:17.985Z,1030.08
2016-12-31T01:32:26.957Z,1030.14
2016-12-31T01:33:35.943Z,1030.16
2016-12-31T01:34:44.917Z,1030.12
2016-12-31T01:35:53.919Z,1030.13
2016-12-31T01:37:02.893Z,1030.13
2016-12-31T01:38:11.882Z,1030.12
2016-12-31T01:39:20.870Z,1030.1
2016-12-31T01:40:29.842Z,1030.12
2016-12-31T01:41:38.825Z,1030.05
2016-12-31T01:42:47.791Z,1030.05
2016-12-31T01:43:56.786Z,1030.05
2016-12-31T01:45:05.767Z,1030.02
2016-12-31T01:46:14.748Z,1029.99
2016-12-31T01:47:23.718Z,1030.02
2016-12-31T01:48:32.695Z,1030.02
2016-12-31T01:49:41.680Z,1029.98
2016-12-31T01:50:50.662Z,1030.01
2016-12-31T01:51:59.648Z,1030
2016-12-31T01:53:08.625Z,1030.02
2016-12-31T01:54:17.602Z,1030.03
2016-12-31T01:55:26.573Z,1030.04
2016-12-31T01:56:35.559Z,1030.05
2016-12-31T01:57:44.545Z,1030.02
2016-12-31T01:58:53.514Z,1030.04
2016-12-31T02:00:02.510Z,1030.03
2016-12-31T02:01:11.503Z,1030.04
2016-12-31T02:02:20.494Z,1030.03
2016-12-31T02:03:29.473Z,1030
2016-12-31T02:04:38.467Z,1029.99
2016-12-31T02:05:47.448Z,1030.02
2016-12-31T02:06:56.431Z,1030
2016-12-31T02:08:05.423Z,1030.02
2016-12-31T02:09:14.390Z,1029.97
2016-12-31T02:10:23.392Z,1030
2016-12-31T02:11:32.360Z,1029.98
2016-12-31T02:12:41.339Z,1029.99
2016-12-31T02:13:50.309Z,1029.95
2016-12-31T02:14:59.298Z,1029.95
2016-12-31T02:16:08.276Z,1029.99
2016-12-31T02:17:17.257Z,1030
2016-12-31T02:18:26.227Z,1029.95
2016-12-31T02:19:35.213Z,1029.96
2016-12-31T02:20:44.236Z,1029.95
2016-12-31T02:21:53.218Z,1029.94
2016-12-31T02:23:02.194Z,1029.94
2016-12-31T02:24:11.179Z,1029.93
2016-12-31T02:25:20.150Z,1029.98
2016-12-31T02:26:29.141Z,1029.95
2016-12-31T02:27:38.120Z,1029.96
2016-12-31T02:28:47.105Z,1029.94
2016-12-31T02:29:56.076Z,1029.94
2016-12-31T02:31:05.060Z,1029.93
2016-12-31T02:32:14.042Z,1029.91
2016-12-31T02:33:23.019Z,1029.84
2016-12-31T02:34:32.005Z,1029.85
2016-12-31T02:35:40.980Z,1029.86
2016-12-31T02:36:49.964Z,1029.87
2016-12-31T02:37:58.954Z,1029.8
2016-12-31T02:39:07.948Z,1029.81
2016-12-31T02:40:16.942Z,1029.82
2016-12-31T02:41:25.924Z,1029.79
2016-12-31T02:42:34.903Z,1029.79
2016-12-31T02:43:43.885Z,1029.8
2016-12-31T02:44:52.862Z,1029.75
2016-12-31T02:46:01.838Z,1029.76
2016-12-31T02:47:10.821Z,1029.76
2016-12-31T02:48:19.801Z,1029.72
2016-12-31T02:49:28.782Z,1029.71
2016-12-31T02:50:37.761Z,1029.68
2016-12-31T02:51:46.736Z,1029.62
2016-12-31T02:52:55.727Z,1029.63
2016-12-31T02:54:04.694Z,1029.61
2016-12-31T02:55:13.666Z,1029.6
2016-12-31T02:56:22.643Z,1029.61
2016-12-31T02:57:31.629Z,1029.58
2016-12-31T02:58:40.606Z,1029.58
2016-12-31T02:59:49.597Z,1029.57
2016-12-31T03:00:58.569Z,1029.53
2016-12-31T03:02:07.567Z,1029.46
2016-12-31T03:03:16.529Z,1029.47
2016-12-31T03:04:25.514Z,1029.46
2016-12-31T03:05:34.493Z,1029.44
2016-12-31T03:06:43.486Z,1029.44
2016-12-31T03:07:52.478Z,1029.42
2016-12-31T03:09:01.459Z,1029.44
2016-12-31T03:10:10.445Z,1029.44
2016-12-31T03:11:19.425Z,1029.42
2016-12-31T03:12:28.420Z,1029.43
2016-12-31T03:13:37.384Z,1029.41
2016-12-31T03:14:46.349Z,1029.43
2016-12-31T03:15:55.331Z,1029.43
2016-12-31T03:17:04.313Z,1029.41
2016-12-31T03:18:13.305Z,1029.38
2016-12-31T03:19:22.275Z,1029.43
2016-12-31T03:20:31.245Z,1029.41
2016-12-31T03:21:40.235Z,1029.36
2016-12-31T03:22:49.224Z,1029.39
2016-12-31T03:23:58.197Z,1029.4
2016-12-31T03:25:07.165Z,1029.39
2016-12-31T03:26:16.152Z,1029.36
2016-12-31T03:27:25.125Z,1029.4
2016-12-31T03:28:34.105Z,1029.4
2016-12-31T03:29:43.089Z,1029.41
2016-12-31T03:30:52.099Z,1029.4
2016-12-31T03:32:01.514Z,1029.37
2016-12-31T03:33:10.496Z,1029.37
2016-12-31T03:34:19.474Z,1029.35
2016-12-31T03:35:28.440Z,1029.35
2016-12-31T03:36:37.429Z,1029.34
2016-12-31T03:37:46.406Z,1029.35
2016-12-31T03:38:55.392Z,1029.33
2016-12-31T03:40:04.370Z,1029.29
2016-12-31T03:41:13.345Z,1029.29
2016-12-31T03:42:22.322Z,1029.32
2016-12-31T03:43:31.305Z,1029.31
2016-12-31T03:44:40.289Z,1029.28
2016-12-31T03:45:49.268Z,1029.31
2016-12-31T03:46:58.240Z,1029.25
2016-12-31T03:48:07.220Z,1029.22
2016-12-31T03:49:16.198Z,1029.24
2016-12-31T03:50:25.212Z,1029.23
2016-12-31T03:51:34.195Z,1029.19
2016-12-31T03:52:43.168Z,1029.17
2016-12-31T03:53:52.568Z,1029.15
2016-12-31T03:55:01.547Z,1029.13
2016-12-31T03:56:10.509Z,1029.16
2016-12-31T03:57:19.496Z,1029.16
2016-12-31T03:58:28.464Z,1029.16
2016-12-31T03:59:37.480Z,1029.13
2016-12-31T04:00:46.452Z,1029.17
2016-12-31T04:01:55.434Z,1029.18
2016-12-31T04:03:04.415Z,1029.17
2016-12-31T04:04:13.407Z,1029.2
2016-12-31T04:05:22.393Z,1029.2
2016-12-31T04:06:31.364Z,1029.2
2016-12-31T04:07:40.353Z,1029.2
2016-12-31T04:08:49.324Z,1029.19
2016-12-31T04:09:58.289Z,1029.22
2016-12-31T04:11:07.261Z,1029.24
2016-12-31T04:12:16.244Z,1029.23
2016-12-31T04:13:25.223Z,1029.22
2016-12-31T04:14:34.195Z,1029.24
2016-12-31T04:15:43.171Z,1029.25
2016-12-31T04:16:52.136Z,1029.29
2016-12-31T04:18:01.127Z,1029.29
2016-12-31T04:19:10.110Z,1029.26
2016-12-31T04:20:19.078Z,1029.23
2016-12-31T04:21:28.054Z,1029.25
2016-12-31T04:22:37.031Z,1029.23
2016-12-31T04:23:45.994Z,1029.2
2016-12-31T04:24:54.968Z,1029.2
2016-12-31T04:26:03.948Z,1029.23
2016-12-31T04:27:12.920Z,1029.2
2016-12-31T04:28:21.881Z,1029.23
2016-12-31T04:29:30.863Z,1029.26
2016-12-31T04:30:39.838Z,1029.25
2016-12-31T04:31:48.829Z,1029.23
2016-12-31T04:32:57.801Z,1029.22
2016-12-31T04:34:06.779Z,1029.22
2016-12-31T04:35:15.766Z,1029.14
2016-12-31T04:36:24.765Z,1029.15
2016-12-31T04:37:33.752Z,1029.17
2016-12-31T04:38:42.715Z,1029.15
2016-12-31T04:39:51.682Z,1029.13
2016-12-31T04:41:00.661Z,1029.12
2016-12-31T04:42:09.641Z,1029.13
2016-12-31T04:43:18.615Z,1029.12
2016-12-31T04:44:27.597Z,1029.09
2016-12-31T04:45:36.561Z,1029.09
2016-12-31T04:46:45.529Z,1029.08
2016-12-31T04:47:54.518Z,1029.07
2016-12-31T04:49:03.498Z,1029.04
2016-12-31T04:50:12.460Z,1029.04
2016-12-31T04:51:21.438Z,1029.05
2016-12-31T04:52:30.410Z,1028.99
2016-12-31T04:53:39.402Z,1029.02
2016-12-31T04:54:48.383Z,1029.02
2016-12-31T04:55:57.367Z,1029.03
2016-12-31T04:57:06.368Z,1029.02
2016-12-31T04:58:15.348Z,1029.03
2016-12-31T04:59:24.335Z,1028.99
2016-12-31T05:00:33.324Z,1028.97
2016-12-31T05:01:42.307Z,1028.97
2016-12-31T05:02:51.284Z,1028.97
2016-12-31T05:04:00.264Z,1028.96
2016-12-31T05:05:09.248Z,1028.96
2016-12-31T05:06:18.230Z,1028.94
2016-12-31T05:07:27.198Z,1028.97
2016-12-31T05:08:36.171Z,1028.95
2016-12-31T05:09:45.151Z,1028.96
2016-12-31T05:10:54.121Z,1028.95
2016-12-31T05:12:03.101Z,1028.96
2016-12-31T05:13:12.085Z,1028.97
2016-12-31T05:14:21.065Z,1028.96
2016-12-31T05:15:30.040Z,1028.92
2016-12-31T05:16:39.008Z,1028.92
2016-12-31T05:17:47.991Z,1028.88
2016-12-31T05:18:56.955Z,1028.86
2016-12-31T05:20:05.970Z,1028.8
2016-12-31T05:21:14.936Z,1028.84
2016-12-31T05:22:23.925Z,1028.82
2016-12-31T05:23:32.917Z,1028.79
2016-12-31T05:24:41.895Z,1028.8
2016-12-31T05:25:50.876Z,1028.78
2016-12-31T05:26:59.850Z,1028.79
2016-12-31T05:28:08.837Z,1028.77
2016-12-31T05:29:17.823Z,1028.78
2016-12-31T05:30:26.796Z,1028.79
2016-12-31T05:31:35.766Z,1028.8
2016-12-31T05:32:44.754Z,1028.76
2016-12-31T05:33:53.749Z,1028.82
2016-12-31T05:35:02.728Z,1028.75
2016-12-31T05:36:11.699Z,1028.7
2016-12-31T05:37:20.684Z,1028.74
2016-12-31T05:38:29.677Z,1028.74
2016-12-31T05:39:38.639Z,1028.71
2016-12-31T05:40:47.623Z,1028.68
2016-12-31T05:41:56.598Z,1028.66
2016-12-31T05:43:05.619Z,1028.66
2016-12-31T05:44:14.595Z,1028.67
2016-12-31T05:45:23.588Z,1028.68
2016-12-31T05:46:32.562Z,1028.7
2016-12-31T05:47:41.561Z,1028.69
2016-12-31T05:48:50.544Z,1028.68
2016-12-31T05:49:59.516Z,1028.62
2016-12-31T05:51:08.502Z,1028.67
2016-12-31T05:52:17.469Z,1028.68
2016-12-31T05:53:26.437Z,1028.64
2016-12-31T05:54:35.424Z,1028.62
2016-12-31T05:55:44.399Z,1028.64
2016-12-31T05:56:53.367Z,1028.66
2016-12-31T05:58:02.373Z,1028.61
2016-12-31T05:59:11.346Z,1028.64
2016-12-31T06:00:20.311Z,1028.67
2016-12-31T06:01:29.290Z,1028.66
2016-12-31T06:02:38.271Z,1028.65
2016-12-31T06:03:47.245Z,1028.63
2016-12-31T06:04:56.223Z,1028.61
2016-12-31T06:06:05.201Z,1028.63
2016-12-31T06:07:14.189Z,1028.64
2016-12-31T06:08:23.162Z,1028.65
2016-12-31T06:09:32.143Z,1028.65
2016-12-31T06:10:41.113Z,1028.58
2016-12-31T06:11:50.085Z,1028.59
2016-12-31T06:12:59.077Z,1028.61
2016-12-31T06:14:08.056Z,1028.58
2016-12-31T06:15:17.035Z,1028.6
2016-12-31T06:16:26.006Z,1028.63
2016-12-31T06:17:34.985Z,1028.65
2016-12-31T06:18:43.973Z,1028.63
2016-12-31T06:19:52.949Z,1028.65
2016-12-31T06:21:01.921Z,1028.68
2016-12-31T06:22:10.920Z,1028.66
2016-12-31T06:23:19.913Z,1028.6
2016-12-31T06:24:28.885Z,1028.61
2016-12-31T06:25:37.857Z,1028.66
2016-12-31T06:26:46.842Z,1028.62
2016-12-31T06:27:55.833Z,1028.64
2016-12-31T06:29:04.803Z,1028.6
2016-12-31T06:30:13.789Z,1028.57
2016-12-31T06:31:22.790Z,1028.55
2016-12-31T06:32:31.778Z,1028.57
2016-12-31T06:33:40.758Z,1028.54
2016-12-31T06:34:49.730Z,1028.54
2016-12-31T06:35:58.716Z,1028.51
2016-12-31T06:37:08.102Z,1028.53
2016-12-31T06:38:17.118Z,1028.47
2016-12-31T06:39:26.098Z,1028.51
2016-12-31T06:40:35.080Z,1028.49
2016-12-31T06:41:44.055Z,1028.49
2016-12-31T06:42:53.035Z,1028.48
2016-12-31T06:44:01.996Z,1028.45
2016-12-31T06:45:10.981Z,1028.4
2016-12-31T06:46:19.957Z,1028.4
2016-12-31T06:47:28.932Z,1028.35
2016-12-31T06:48:37.900Z,1028.34
2016-12-31T06:49:46.881Z,1028.31
2016-12-31T06:50:55.851Z,1028.34
2016-12-31T06:52:04.834Z,1028.34
2016-12-31T06:53:13.813Z,1028.32
2016-12-31T06:54:22.785Z,1028.29
2016-12-31T06:55:31.750Z,1028.35
2016-12-31T06:56:40.742Z,1028.34
2016-12-31T06:57:49.712Z,1028.3
2016-12-31T06:58:58.700Z,1028.32
2016-12-31T07:00:07.678Z,1028.27
2016-12-31T07:01:16.664Z,1028.28
2016-12-31T07:02:25.640Z,1028.25
2016-12-31T07:03:34.614Z,1028.19
2016-12-31T07:04:43.584Z,1028.22
2016-12-31T07:05:52.567Z,1028.25
2016-12-31T07:07:01.558Z,1028.23
2016-12-31T07:08:10.532Z,1028.25
2016-12-31T07:09:19.515Z,1028.24
2016-12-31T07:10:28.492Z,1028.24
2016-12-31T07:11:37.472Z,1028.22
2016-12-31T07:12:46.448Z,1028.23
2016-12-31T07:13:55.425Z,1028.19
2016-12-31T07:15:04.409Z,1028.23
2016-12-31T07:16:13.389Z,1028.24
2016-12-31T07:17:22.375Z,1028.22
2016-12-31T07:18:31.357Z,1028.23
2016-12-31T07:19:40.338Z,1028.2
2016-12-31T07:20:49.321Z,1028.22
2016-12-31T07:21:58.285Z,1028.18
2016-12-31T07:23:07.279Z,1028.23
2016-12-31T07:24:16.253Z,1028.2
2016-12-31T07:25:25.239Z,1028.13
2016-12-31T07:26:34.213Z,1028.18
2016-12-31T07:27:43.205Z,1028.19
2016-12-31T07:28:52.185Z,1028.21
2016-12-31T07:30:01.155Z,1028.2
2016-12-31T07:31:10.134Z,1028.2
2016-12-31T07:32:19.110Z,1028.19
2016-12-31T07:33:28.084Z,1028.16
2016-12-31T07:34:37.069Z,1028.2
2016-12-31T07:35:46.052Z,1028.19
2016-12-31T07:36:55.030Z,1028.2
2016-12-31T07:38:04.029Z,1028.24
2016-12-31T07:39:12.999Z,1028.21
2016-12-31T07:40:21.996Z,1028.21
2016-12-31T07:41:30.972Z,1028.24
2016-12-31T07:42:39.953Z,1028.2
2016-12-31T07:43:48.932Z,1028.25
2016-12-31T07:44:57.911Z,1028.21
2016-12-31T07:46:06.902Z,1028.22
2016-12-31T07:47:15.874Z,1028.2
2016-12-31T07:48:24.854Z,1028.24
2016-12-31T07:49:33.829Z,1028.28
2016-12-31T07:50:42.797Z,1028.23
2016-12-31T07:51:51.788Z,1028.26
2016-12-31T07:53:00.766Z,1028.23
2016-12-31T07:54:09.797Z,1028.22
2016-12-31T07:55:18.777Z,1028.2
2016-12-31T07:56:27.758Z,1028.22
2016-12-31T07:57:36.739Z,1028.23
2016-12-31T07:58:46.151Z,1028.22
2016-12-31T07:59:55.130Z,1028.22
2016-12-31T08:01:04.112Z,1028.23
2016-12-31T08:02:13.076Z,1028.28
2016-12-31T08:03:22.061Z,1028.31
2016-12-31T08:04:31.042Z,1028.25
2016-12-31T08:05:40.031Z,1028.27
2016-12-31T08:06:49.023Z,1028.24
2016-12-31T08:07:57.993Z,1028.24
2016-12-31T08:09:06.983Z,1028.26
2016-12-31T08:10:15.964Z,1028.2
2016-12-31T08:11:24.941Z,1028.2
2016-12-31T08:12:33.922Z,1028.17
2016-12-31T08:13:42.910Z,1028.15
2016-12-31T08:14:51.891Z,1028.18
2016-12-31T08:16:00.863Z,1028.18
2016-12-31T08:17:09.838Z,1028.23
2016-12-31T08:18:18.813Z,1028.22
2016-12-31T08:19:27.787Z,1028.24
2016-12-31T08:20:36.768Z,1028.29
2016-12-31T08:21:45.739Z,1028.26
2016-12-31T08:22:54.721Z,1028.29
2016-12-31T08:24:03.707Z,1028.28
2016-12-31T08:25:12.690Z,1028.31
2016-12-31T08:26:21.671Z,1028.34
2016-12-31T08:27:30.671Z,1028.28
2016-12-31T08:28:39.652Z,1028.31
2016-12-31T08:29:48.631Z,1028.3
2016-12-31T08:30:57.622Z,1028.26
2016-12-31T08:32:06.596Z,1028.33
2016-12-31T08:33:15.572Z,1028.29
2016-12-31T08:34:24.547Z,1028.32
2016-12-31T08:35:33.526Z,1028.32
2016-12-31T08:36:42.524Z,1028.34
2016-12-31T08:37:51.516Z,1028.38
2016-12-31T08:39:00.498Z,1028.39
2016-12-31T08:40:09.480Z,1028.4
2016-12-31T08:41:18.453Z,1028.41
2016-12-31T08:42:27.452Z,1028.43
2016-12-31T08:43:36.421Z,1028.43
2016-12-31T08:44:45.399Z,1028.38
2016-12-31T08:45:54.373Z,1028.38
2016-12-31T08:47:03.359Z,1028.36
2016-12-31T08:48:12.520Z,1028.37
2016-12-31T08:49:21.539Z,1028.34
2016-12-31T08:50:30.515Z,1028.38
2016-12-31T08:51:39.499Z,1028.35
2016-12-31T08:52:48.472Z,1028.32
2016-12-31T08:53:57.450Z,1028.27
2016-12-31T08:55:06.426Z,1028.28
2016-12-31T08:56:15.410Z,1028.25
2016-12-31T08:57:24.384Z,1028.27
2016-12-31T08:58:33.362Z,1028.26
2016-12-31T08:59:42.348Z,1028.24
2016-12-31T09:00:51.377Z,1028.26
2016-12-31T09:02:00.355Z,1028.23
2016-12-31T09:03:09.339Z,1028.24
2016-12-31T09:04:18.308Z,1028.26
2016-12-31T09:05:27.282Z,1028.24
2016-12-31T09:06:36.254Z,1028.27
2016-12-31T09:07:45.249Z,1028.23
2016-12-31T09:08:54.224Z,1028.27
2016-12-31T09:10:03.200Z,1028.25
2016-12-31T09:11:12.191Z,1028.25
2016-12-31T09:12:21.170Z,1028.26
2016-12-31T09:13:30.162Z,1028.25
2016-12-31T09:14:39.130Z,1028.25
2016-12-31T09:15:48.094Z,1028.29
2016-12-31T09:16:57.074Z,1028.29
2016-12-31T09:18:06.041Z,1028.3
2016-12-31T09:19:15.023Z,1028.28
2016-12-31T09:20:23.997Z,1028.32
2016-12-31T09:21:32.973Z,1028.31
2016-12-31T09:22:41.939Z,1028.28
2016-12-31T09:23:50.936Z,1028.34
2016-12-31T09:24:59.906Z,1028.38
2016-12-31T09:26:08.898Z,1028.25
2016-12-31T09:27:17.876Z,1028.29
2016-12-31T09:28:26.850Z,1028.27
2016-12-31T09:29:35.824Z,1028.25
2016-12-31T09:30:44.812Z,1028.24
2016-12-31T09:31:53.807Z,1028.24
2016-12-31T09:33:02.794Z,1028.2
2016-12-31T09:34:11.771Z,1028.18
2016-12-31T09:35:20.757Z,1028.2
2016-12-31T09:36:29.721Z,1028.19
2016-12-31T09:37:38.697Z,1028.17
2016-12-31T09:38:47.664Z,1028.16
2016-12-31T09:39:56.661Z,1028.14
2016-12-31T09:41:05.650Z,1028.12
2016-12-31T09:42:14.622Z,1028.12
2016-12-31T09:43:23.607Z,1028.1
2016-12-31T09:44:32.578Z,1028.14
2016-12-31T09:45:41.551Z,1028.09
2016-12-31T09:46:50.534Z,1028.08
2016-12-31T09:47:59.515Z,1028.06
2016-12-31T09:49:08.492Z,1028.08
2016-12-31T09:50:17.459Z,1028.08
2016-12-31T09:51:26.451Z,1028.08
2016-12-31T09:52:35.430Z,1028.08
2016-12-31T09:53:44.406Z,1028.07
2016-12-31T09:54:53.380Z,1028.05
2016-12-31T09:56:02.354Z,1028.04
2016-12-31T09:57:11.351Z,1028.02
2016-12-31T09:58:20.335Z,1028
2016-12-31T09:59:29.329Z,1027.98
2016-12-31T10:00:38.306Z,1027.93
2016-12-31T10:01:47.288Z,1027.93
2016-12-31T10:02:56.261Z,1027.93
2016-12-31T10:04:05.233Z,1027.89
2016-12-31T10:05:14.243Z,1027.88
2016-12-31T10:06:23.215Z,1027.84
2016-12-31T10:07:32.188Z,1027.87
2016-12-31T10:08:41.165Z,1027.82
2016-12-31T10:09:50.143Z,1027.8
2016-12-31T10:10:59.124Z,1027.77
2016-12-31T10:12:08.110Z,1027.74
2016-12-31T10:13:17.091Z,1027.67
2016-12-31T10:14:26.077Z,1027.69
2016-12-31T10:15:35.056Z,1027.63
2016-12-31T10:16:44.050Z,1027.67
2016-12-31T10:17:53.029Z,1027.62
2016-12-31T10:19:02.025Z,1027.64
2016-12-31T10:20:11.004Z,1027.6
2016-12-31T10:21:19.986Z,1027.6
2016-12-31T10:22:28.957Z,1027.56
2016-12-31T10:23:37.940Z,1027.59
2016-12-31T10:24:46.914Z,1027.56
2016-12-31T10:25:55.893Z,1027.59
2016-12-31T10:27:04.862Z,1027.54
2016-12-31T10:28:13.861Z,1027.5
2016-12-31T10:29:22.834Z,1027.5
2016-12-31T10:30:31.836Z,1027.45
2016-12-31T10:31:40.814Z,1027.45
2016-12-31T10:32:49.789Z,1027.48
2016-12-31T10:33:58.758Z,1027.49
2016-12-31T10:35:07.751Z,1027.47
2016-12-31T10:36:16.733Z,1027.45
2016-12-31T10:37:25.705Z,1027.45
2016-12-31T10:38:34.679Z,1027.47
2016-12-31T10:39:43.669Z,1027.46
2016-12-31T10:40:52.645Z,1027.41
2016-12-31T10:42:01.629Z,1027.41
2016-12-31T10:43:10.653Z,1027.41
2016-12-31T10:44:20.737Z,1027.39
2016-12-31T10:45:29.872Z,1027.34
2016-12-31T10:46:38.943Z,1027.36
2016-12-31T10:47:47.928Z,1027.35
2016-12-31T10:48:56.992Z,1027.35
2016-12-31T10:50:06.045Z,1027.34
2016-12-31T10:51:15.767Z,1027.31
2016-12-31T10:52:24.757Z,1027.28
2016-12-31T10:53:34.963Z,1027.23
2016-12-31T10:54:44.398Z,1027.25
2016-12-31T10:55:53.377Z,1027.22
2016-12-31T10:57:02.355Z,1027.19
2016-12-31T10:58:11.872Z,1027.15
2016-12-31T10:59:20.870Z,1027.17
2016-12-31T11:00:29.959Z,1027.17
2016-12-31T11:01:39.164Z,1027.16
2016-12-31T11:02:48.151Z,1027.15
2016-12-31T11:03:57.197Z,1027.21
2016-12-31T11:05:06.236Z,1027.19
2016-12-31T11:06:15.315Z,1027.21
2016-12-31T11:07:24.389Z,1027.16
2016-12-31T11:08:33.778Z,1027.23
2016-12-31T11:09:42.817Z,1027.23
2016-12-31T11:10:52.167Z,1027.23
2016-12-31T11:12:01.523Z,1027.17
2016-12-31T11:13:10.546Z,1027.16
2016-12-31T11:14:19.899Z,1027.1
2016-12-31T11:15:28.901Z,1027.13
2016-12-31T11:16:38.322Z,1027.07
2016-12-31T11:17:47.820Z,1027.04
2016-12-31T11:18:56.946Z,1027.02
2016-12-31T11:20:06.206Z,1027.01
2016-12-31T11:21:15.512Z,1026.99
2016-12-31T11:22:24.924Z,1027.01
2016-12-31T11:23:34.251Z,1026.98
2016-12-31T11:24:43.448Z,1026.99
2016-12-31T11:25:52.441Z,1026.91
2016-12-31T11:27:01.530Z,1026.93
2016-12-31T11:28:10.735Z,1026.9
2016-12-31T11:29:19.939Z,1026.88
2016-12-31T11:30:28.971Z,1026.89
2016-12-31T11:31:38.393Z,1026.91
2016-12-31T11:32:47.524Z,1026.86
2016-12-31T11:33:56.609Z,1026.89
2016-12-31T11:35:05.620Z,1026.93
2016-12-31T11:36:14.631Z,1026.84
2016-12-31T11:37:23.623Z,1026.84
2016-12-31T11:38:32.616Z,1026.82
2016-12-31T11:39:41.664Z,1026.84
2016-12-31T11:40:50.638Z,1026.78
2016-12-31T11:41:59.679Z,1026.81
2016-12-31T11:43:08.666Z,1026.76
2016-12-31T11:44:17.649Z,1026.71
2016-12-31T11:45:26.631Z,1026.69
2016-12-31T11:46:35.608Z,1026.65
2016-12-31T11:47:44.588Z,1026.54
2016-12-31T11:48:53.706Z,1026.54
2016-12-31T11:50:02.890Z,1026.57
2016-12-31T11:51:11.991Z,1026.52
2016-12-31T11:52:20.996Z,1026.48
2016-12-31T11:53:30.380Z,1026.48
2016-12-31T11:54:39.393Z,1026.48
2016-12-31T11:55:48.699Z,1026.49
2016-12-31T11:56:57.695Z,1026.41
2016-12-31T11:58:07.050Z,1026.44
2016-12-31T11:59:16.161Z,1026.43
2016-12-31T12:00:25.224Z,1026.45
2016-12-31T12:01:34.334Z,1026.45
2016-12-31T12:02:43.422Z,1026.39
2016-12-31T12:03:52.521Z,1026.43
2016-12-31T12:05:01.504Z,1026.44
2016-12-31T12:06:10.565Z,1026.46
2016-12-31T12:07:19.533Z,1026.41
2016-12-31T12:08:28.505Z,1026.43
2016-12-31T12:09:37.498Z,1026.4
2016-12-31T12:10:46.578Z,1026.4
2016-12-31T12:11:55.689Z,1026.38
2016-12-31T12:13:04.665Z,1026.36
2016-12-31T12:14:13.645Z,1026.31
2016-12-31T12:15:23.853Z,1026.31
2016-12-31T12:16:32.842Z,1026.35
2016-12-31T12:17:41.831Z,1026.33
2016-12-31T12:18:50.820Z,1026.33
2016-12-31T12:19:59.803Z,1026.26
2016-12-31T12:21:08.794Z,1026.26
2016-12-31T12:22:17.781Z,1026.33
2016-12-31T12:23:26.757Z,1026.26
2016-12-31T12:24:35.740Z,1026.29
2016-12-31T12:25:44.751Z,1026.29
2016-12-31T12:26:53.725Z,1026.31
2016-12-31T12:28:02.717Z,1026.25
2016-12-31T12:29:11.697Z,1026.24
2016-12-31T12:30:20.672Z,1026.22
2016-12-31T12:31:29.654Z,1026.22
2016-12-31T12:32:38.750Z,1026.16
2016-12-31T12:33:47.768Z,1026.16
2016-12-31T12:34:56.804Z,1026.1
2016-12-31T12:36:06.841Z,1026.08
2016-12-31T12:37:17.558Z,1026.01
2016-12-31T12:38:26.933Z,1026.02
2016-12-31T12:39:35.919Z,1026.04
2016-12-31T12:40:45.003Z,1026.09
2016-12-31T12:41:54.070Z,1026.1
2016-12-31T12:43:03.162Z,1026.05
2016-12-31T12:44:12.512Z,1026.08
2016-12-31T12:45:21.905Z,1026.1
2016-12-31T12:46:30.984Z,1026.06
2016-12-31T12:47:39.975Z,1026.09
2016-12-31T12:48:49.119Z,1026.06
2016-12-31T12:49:58.213Z,1026.03
2016-12-31T12:51:07.563Z,1026.08
2016-12-31T12:52:16.530Z,1026.03
2016-12-31T12:53:25.570Z,1026.06
2016-12-31T12:54:34.559Z,1026.05
2016-12-31T12:55:43.551Z,1026.08
2016-12-31T12:56:52.538Z,1026.08
2016-12-31T12:58:01.528Z,1026.03
2016-12-31T12:59:10.503Z,1026.09
2016-12-31T13:00:19.494Z,1025.97
2016-12-31T13:01:28.477Z,1025.91
2016-12-31T13:02:37.461Z,1025.92
2016-12-31T13:03:46.430Z,1025.89
2016-12-31T13:04:55.427Z,1025.85
2016-12-31T13:06:04.396Z,1025.85
2016-12-31T13:07:13.408Z,1025.86
2016-12-31T13:08:22.384Z,1025.83
2016-12-31T13:09:31.397Z,1025.83
2016-12-31T13:10:40.366Z,1025.78
2016-12-31T13:11:49.361Z,1025.78
2016-12-31T13:12:58.340Z,1025.77
2016-12-31T13:14:07.327Z,1025.8
2016-12-31T13:15:16.309Z,1025.74
2016-12-31T13:16:25.289Z,1025.81
2016-12-31T13:17:34.276Z,1025.81
2016-12-31T13:18:43.283Z,1025.77
2016-12-31T13:19:52.258Z,1025.75
2016-12-31T13:21:01.251Z,1025.74
2016-12-31T13:22:10.249Z,1025.72
2016-12-31T13:23:19.234Z,1025.74
2016-12-31T13:24:28.212Z,1025.73
2016-12-31T13:25:37.198Z,1025.77
2016-12-31T13:26:46.167Z,1025.7
2016-12-31T13:27:55.165Z,1025.69
2016-12-31T13:29:04.147Z,1025.7
2016-12-31T13:30:13.121Z,1025.7
2016-12-31T13:31:22.093Z,1025.75
2016-12-31T13:32:31.095Z,1025.72
2016-12-31T13:33:40.076Z,1025.75
2016-12-31T13:34:49.059Z,1025.71
2016-12-31T13:35:58.035Z,1025.66
2016-12-31T13:37:07.015Z,1025.63
2016-12-31T13:38:15.993Z,1025.66
2016-12-31T13:39:24.990Z,1025.65
2016-12-31T13:40:33.993Z,1025.66
2016-12-31T13:41:42.973Z,1025.76
2016-12-31T13:42:51.962Z,1025.67
2016-12-31T13:44:00.932Z,1025.7
2016-12-31T13:45:09.908Z,1025.65
2016-12-31T13:46:18.889Z,1025.61
2016-12-31T13:47:27.920Z,1025.6
2016-12-31T13:48:36.959Z,1025.54
2016-12-31T13:49:45.933Z,1025.58
2016-12-31T13:50:54.994Z,1025.58
2016-12-31T13:52:04.126Z,1025.6
2016-12-31T13:53:13.701Z,1025.57
2016-12-31T13:54:22.740Z,1025.55
2016-12-31T13:55:32.084Z,1025.58
2016-12-31T13:56:41.121Z,1025.51
2016-12-31T13:57:50.099Z,1025.47